sensor_id;sensor_type;location;lat;lon;timestamp;P1;P2;P0
73414;PMS5003;61633;53.742;-2.990;2022-10-16T00:02:16;6;5;
73414;PMS5003;61633;53.742;-2.990;2022-10-16T00:04:35;3;2;
73414;PMS5003;61633;53.742;-2.990;2022-10-16T00:07:00;4;2;
73414;PMS5003;61633;53.742;-2.990;2022-10-16T00:09:26;4;4;
73414;PMS5003;61633;53.742;-2.990;2022-10-16T00:11:52;6;2;
73414;PMS5003;61633;53.742;-2.990;2022-10-16T00:14:17;4;3;
73414;PMS5003;61633;53.742;-2.990;2022-10-16T00:16:43;3;2;
73414;PMS5003;61633;53.742;-2.990;2022-10-16T00:19:10;4;2;
73414;PMS5003;61633;53.742;-2.990;2022-10-16T00:21:34;3;2;
73414;PMS5003;61633;53.742;-2.990;2022-10-16T00:24:01;5;3;
73414;PMS5003;61633;53.742;-2.990;2022-10-16T00:26:26;5;4;
73414;PMS5003;61633;53.742;-2.990;2022-10-16T00:28:51;5;3;
73414;PMS5003;61633;53.742;-2.990;2022-10-16T00:31:17;3;2;
73414;PMS5003;61633;53.742;-2.990;2022-10-16T00:33:42;2;2;
73414;PMS5003;61633;53.742;-2.990;2022-10-16T00:36:09;4;2;
73414;PMS5003;61633;53.742;-2.990;2022-10-16T00:38:33;4;4;
73414;PMS5003;61633;53.742;-2.990;2022-10-16T00:40:58;4;3;
73414;PMS5003;61633;53.742;-2.990;2022-10-16T00:43:35;5;1;
73414;PMS5003;61633;53.742;-2.990;2022-10-16T00:45:49;5;4;
73414;PMS5003;61633;53.742;-2.990;2022-10-16T00:48:21;2;2;
73414;PMS5003;61633;53.742;-2.990;2022-10-16T00:50:40;6;5;
73414;PMS5003;61633;53.742;-2.990;2022-10-16T00:53:06;2;2;
73414;PMS5003;61633;53.742;-2.990;2022-10-16T00:55:32;3;3;
73414;PMS5003;61633;53.742;-2.990;2022-10-16T00:57:57;4;2;
73414;PMS5003;61633;53.742;-2.990;2022-10-16T01:00:24;2;2;
73414;PMS5003;61633;53.742;-2.990;2022-10-16T01:02:52;2;1;
73414;PMS5003;61633;53.742;-2.990;2022-10-16T01:05:14;7;3;
73414;PMS5003;61633;53.742;-2.990;2022-10-16T01:07:43;5;3;
73414;PMS5003;61633;53.742;-2.990;2022-10-16T01:10:07;3;3;
73414;PMS5003;61633;53.742;-2.990;2022-10-16T01:12:33;5;2;
73414;PMS5003;61633;53.742;-2.990;2022-10-16T01:14:58;5;3;
73414;PMS5003;61633;53.742;-2.990;2022-10-16T01:17:23;7;4;
73414;PMS5003;61633;53.742;-2.990;2022-10-16T01:19:56;4;4;
73414;PMS5003;61633;53.742;-2.990;2022-10-16T01:22:13;1;1;
73414;PMS5003;61633;53.742;-2.990;2022-10-16T01:24:39;2;2;
73414;PMS5003;61633;53.742;-2.990;2022-10-16T01:27:09;2;2;
73414;PMS5003;61633;53.742;-2.990;2022-10-16T01:29:31;1;1;
73414;PMS5003;61633;53.742;-2.990;2022-10-16T01:31:56;1;1;
73414;PMS5003;61633;53.742;-2.990;2022-10-16T01:34:22;2;2;
73414;PMS5003;61633;53.742;-2.990;2022-10-16T01:36:47;3;2;
73414;PMS5003;61633;53.742;-2.990;2022-10-16T01:39:12;6;3;
73414;PMS5003;61633;53.742;-2.990;2022-10-16T01:41:39;6;5;
73414;PMS5003;61633;53.742;-2.990;2022-10-16T01:44:03;3;2;
73414;PMS5003;61633;53.742;-2.990;2022-10-16T01:46:28;2;2;
73414;PMS5003;61633;53.742;-2.990;2022-10-16T01:48:54;3;2;
73414;PMS5003;61633;53.742;-2.990;2022-10-16T01:51:19;3;2;
73414;PMS5003;61633;53.742;-2.990;2022-10-16T01:53:46;3;1;
73414;PMS5003;61633;53.742;-2.990;2022-10-16T01:56:11;2;2;
73414;PMS5003;61633;53.742;-2.990;2022-10-16T01:58:37;1;1;
73414;PMS5003;61633;53.742;-2.990;2022-10-16T02:01:02;2;1;
73414;PMS5003;61633;53.742;-2.990;2022-10-16T02:03:27;3;1;
73414;PMS5003;61633;53.742;-2.990;2022-10-16T02:05:53;3;2;
73414;PMS5003;61633;53.742;-2.990;2022-10-16T02:08:18;3;2;
73414;PMS5003;61633;53.742;-2.990;2022-10-16T02:10:44;3;2;
73414;PMS5003;61633;53.742;-2.990;2022-10-16T02:13:10;3;2;
73414;PMS5003;61633;53.742;-2.990;2022-10-16T02:15:35;4;4;
73414;PMS5003;61633;53.742;-2.990;2022-10-16T02:18:01;1;1;
73414;PMS5003;61633;53.742;-2.990;2022-10-16T02:20:27;1;1;
73414;PMS5003;61633;53.742;-2.990;2022-10-16T02:22:51;4;2;
73414;PMS5003;61633;53.742;-2.990;2022-10-16T02:25:18;1;1;
73414;PMS5003;61633;53.742;-2.990;2022-10-16T02:27:44;2;2;
73414;PMS5003;61633;53.742;-2.990;2022-10-16T02:30:10;2;1;
73414;PMS5003;61633;53.742;-2.990;2022-10-16T02:32:34;3;1;
73414;PMS5003;61633;53.742;-2.990;2022-10-16T02:34:59;4;4;
73414;PMS5003;61633;53.742;-2.990;2022-10-16T02:37:24;2;2;
73414;PMS5003;61633;53.742;-2.990;2022-10-16T02:39:50;2;2;
73414;PMS5003;61633;53.742;-2.990;2022-10-16T02:42:17;3;2;
73414;PMS5003;61633;53.742;-2.990;2022-10-16T02:44:41;4;1;
73414;PMS5003;61633;53.742;-2.990;2022-10-16T02:47:07;2;2;
73414;PMS5003;61633;53.742;-2.990;2022-10-16T02:49:32;5;1;
73414;PMS5003;61633;53.742;-2.990;2022-10-16T02:51:58;1;1;
73414;PMS5003;61633;53.742;-2.990;2022-10-16T02:54:28;3;3;
73414;PMS5003;61633;53.742;-2.990;2022-10-16T02:56:49;3;2;
73414;PMS5003;61633;53.742;-2.990;2022-10-16T02:59:15;5;2;
73414;PMS5003;61633;53.742;-2.990;2022-10-16T03:01:40;1;1;
73414;PMS5003;61633;53.742;-2.990;2022-10-16T03:04:05;1;1;
73414;PMS5003;61633;53.742;-2.990;2022-10-16T03:06:31;2;2;
73414;PMS5003;61633;53.742;-2.990;2022-10-16T03:08:57;1;1;
73414;PMS5003;61633;53.742;-2.990;2022-10-16T03:11:22;4;4;
73414;PMS5003;61633;53.742;-2.990;2022-10-16T03:13:48;3;2;
73414;PMS5003;61633;53.742;-2.990;2022-10-16T03:16:14;2;1;
73414;PMS5003;61633;53.742;-2.990;2022-10-16T03:18:39;2;1;
73414;PMS5003;61633;53.742;-2.990;2022-10-16T03:21:05;4;1;
73414;PMS5003;61633;53.742;-2.990;2022-10-16T03:23:30;1;1;
73414;PMS5003;61633;53.742;-2.990;2022-10-16T03:25:56;0;0;
73414;PMS5003;61633;53.742;-2.990;2022-10-16T03:28:22;2;2;
73414;PMS5003;61633;53.742;-2.990;2022-10-16T03:30:47;3;2;
73414;PMS5003;61633;53.742;-2.990;2022-10-16T03:33:13;1;1;
73414;PMS5003;61633;53.742;-2.990;2022-10-16T03:35:39;2;1;
73414;PMS5003;61633;53.742;-2.990;2022-10-16T03:38:04;2;1;
73414;PMS5003;61633;53.742;-2.990;2022-10-16T03:40:30;2;2;
73414;PMS5003;61633;53.742;-2.990;2022-10-16T03:42:55;4;2;
73414;PMS5003;61633;53.742;-2.990;2022-10-16T03:45:21;1;1;
73414;PMS5003;61633;53.742;-2.990;2022-10-16T03:47:46;2;1;
73414;PMS5003;61633;53.742;-2.990;2022-10-16T03:50:12;2;2;
73414;PMS5003;61633;53.742;-2.990;2022-10-16T03:52:38;2;1;
73414;PMS5003;61633;53.742;-2.990;2022-10-16T03:55:03;1;1;
73414;PMS5003;61633;53.742;-2.990;2022-10-16T03:57:28;3;2;
73414;PMS5003;61633;53.742;-2.990;2022-10-16T03:59:54;1;1;
73414;PMS5003;61633;53.742;-2.990;2022-10-16T04:02:19;4;1;
73414;PMS5003;61633;53.742;-2.990;2022-10-16T04:04:44;1;1;
73414;PMS5003;61633;53.742;-2.990;2022-10-16T04:07:10;2;2;
73414;PMS5003;61633;53.742;-2.990;2022-10-16T04:09:36;3;2;
73414;PMS5003;61633;53.742;-2.990;2022-10-16T04:12:02;0;0;
73414;PMS5003;61633;53.742;-2.990;2022-10-16T04:14:27;2;2;
73414;PMS5003;61633;53.742;-2.990;2022-10-16T04:16:53;2;1;
73414;PMS5003;61633;53.742;-2.990;2022-10-16T04:19:18;4;1;
73414;PMS5003;61633;53.742;-2.990;2022-10-16T04:21:44;3;1;
73414;PMS5003;61633;53.742;-2.990;2022-10-16T04:24:09;1;1;
73414;PMS5003;61633;53.742;-2.990;2022-10-16T04:26:35;4;2;
73414;PMS5003;61633;53.742;-2.990;2022-10-16T04:29:00;3;3;
73414;PMS5003;61633;53.742;-2.990;2022-10-16T04:31:26;2;2;
73414;PMS5003;61633;53.742;-2.990;2022-10-16T04:33:52;3;2;
73414;PMS5003;61633;53.742;-2.990;2022-10-16T04:36:17;2;1;
73414;PMS5003;61633;53.742;-2.990;2022-10-16T04:38:43;0;0;
73414;PMS5003;61633;53.742;-2.990;2022-10-16T04:41:09;2;1;
73414;PMS5003;61633;53.742;-2.990;2022-10-16T04:43:34;3;2;
73414;PMS5003;61633;53.742;-2.990;2022-10-16T04:46:00;2;1;
73414;PMS5003;61633;53.742;-2.990;2022-10-16T04:48:25;3;2;
73414;PMS5003;61633;53.742;-2.990;2022-10-16T04:50:50;3;3;
73414;PMS5003;61633;53.742;-2.990;2022-10-16T04:53:16;4;4;
73414;PMS5003;61633;53.742;-2.990;2022-10-16T04:55:42;1;1;
73414;PMS5003;61633;53.742;-2.990;2022-10-16T04:58:07;1;1;
73414;PMS5003;61633;53.742;-2.990;2022-10-16T05:00:33;3;3;
73414;PMS5003;61633;53.742;-2.990;2022-10-16T05:02:58;3;2;
73414;PMS5003;61633;53.742;-2.990;2022-10-16T05:05:24;2;2;
73414;PMS5003;61633;53.742;-2.990;2022-10-16T05:07:50;1;1;
73414;PMS5003;61633;53.742;-2.990;2022-10-16T05:10:16;2;1;
73414;PMS5003;61633;53.742;-2.990;2022-10-16T05:12:41;1;1;
73414;PMS5003;61633;53.742;-2.990;2022-10-16T05:15:07;3;2;
73414;PMS5003;61633;53.742;-2.990;2022-10-16T05:17:32;3;3;
73414;PMS5003;61633;53.742;-2.990;2022-10-16T05:19:58;4;1;
73414;PMS5003;61633;53.742;-2.990;2022-10-16T05:22:23;5;3;
73414;PMS5003;61633;53.742;-2.990;2022-10-16T05:24:49;3;1;
73414;PMS5003;61633;53.742;-2.990;2022-10-16T05:27:14;3;1;
73414;PMS5003;61633;53.742;-2.990;2022-10-16T05:29:40;2;2;
73414;PMS5003;61633;53.742;-2.990;2022-10-16T05:32:06;0;0;
73414;PMS5003;61633;53.742;-2.990;2022-10-16T05:34:31;3;3;
73414;PMS5003;61633;53.742;-2.990;2022-10-16T05:36:57;2;1;
73414;PMS5003;61633;53.742;-2.990;2022-10-16T05:39:22;4;3;
73414;PMS5003;61633;53.742;-2.990;2022-10-16T05:41:49;5;2;
73414;PMS5003;61633;53.742;-2.990;2022-10-16T05:44:13;2;0;
73414;PMS5003;61633;53.742;-2.990;2022-10-16T05:46:39;1;1;
73414;PMS5003;61633;53.742;-2.990;2022-10-16T05:49:04;0;0;
73414;PMS5003;61633;53.742;-2.990;2022-10-16T05:51:30;4;2;
73414;PMS5003;61633;53.742;-2.990;2022-10-16T05:53:56;2;2;
73414;PMS5003;61633;53.742;-2.990;2022-10-16T05:56:21;3;2;
73414;PMS5003;61633;53.742;-2.990;2022-10-16T05:58:47;4;2;
73414;PMS5003;61633;53.742;-2.990;2022-10-16T06:01:13;3;2;
73414;PMS5003;61633;53.742;-2.990;2022-10-16T06:03:38;6;3;
73414;PMS5003;61633;53.742;-2.990;2022-10-16T06:06:07;5;4;
73414;PMS5003;61633;53.742;-2.990;2022-10-16T06:08:29;2;2;
73414;PMS5003;61633;53.742;-2.990;2022-10-16T06:11:00;1;1;
73414;PMS5003;61633;53.742;-2.990;2022-10-16T06:13:21;2;2;
73414;PMS5003;61633;53.742;-2.990;2022-10-16T06:15:46;5;4;
73414;PMS5003;61633;53.742;-2.990;2022-10-16T06:18:12;4;4;
73414;PMS5003;61633;53.742;-2.990;2022-10-16T06:20:38;6;4;
73414;PMS5003;61633;53.742;-2.990;2022-10-16T06:23:03;2;2;
73414;PMS5003;61633;53.742;-2.990;2022-10-16T06:25:29;3;3;
73414;PMS5003;61633;53.742;-2.990;2022-10-16T06:27:55;3;2;
73414;PMS5003;61633;53.742;-2.990;2022-10-16T06:30:19;3;2;
73414;PMS5003;61633;53.742;-2.990;2022-10-16T06:32:45;3;2;
73414;PMS5003;61633;53.742;-2.990;2022-10-16T06:35:10;2;2;
73414;PMS5003;61633;53.742;-2.990;2022-10-16T06:37:36;1;0;
73414;PMS5003;61633;53.742;-2.990;2022-10-16T06:40:02;1;1;
73414;PMS5003;61633;53.742;-2.990;2022-10-16T06:42:27;3;2;
73414;PMS5003;61633;53.742;-2.990;2022-10-16T06:44:53;5;2;
73414;PMS5003;61633;53.742;-2.990;2022-10-16T06:47:18;3;2;
73414;PMS5003;61633;53.742;-2.990;2022-10-16T06:49:44;2;1;
73414;PMS5003;61633;53.742;-2.990;2022-10-16T06:52:09;5;4;
73414;PMS5003;61633;53.742;-2.990;2022-10-16T06:54:36;0;0;
73414;PMS5003;61633;53.742;-2.990;2022-10-16T06:57:01;1;1;
73414;PMS5003;61633;53.742;-2.990;2022-10-16T06:59:26;1;1;
73414;PMS5003;61633;53.742;-2.990;2022-10-16T07:01:52;1;1;
73414;PMS5003;61633;53.742;-2.990;2022-10-16T07:04:17;2;1;
73414;PMS5003;61633;53.742;-2.990;2022-10-16T07:06:43;10;4;
73414;PMS5003;61633;53.742;-2.990;2022-10-16T07:09:09;2;2;
73414;PMS5003;61633;53.742;-2.990;2022-10-16T07:11:35;3;3;
73414;PMS5003;61633;53.742;-2.990;2022-10-16T07:14:00;4;1;
73414;PMS5003;61633;53.742;-2.990;2022-10-16T07:16:26;4;3;
73414;PMS5003;61633;53.742;-2.990;2022-10-16T07:18:52;2;1;
73414;PMS5003;61633;53.742;-2.990;2022-10-16T07:21:18;0;0;
73414;PMS5003;61633;53.742;-2.990;2022-10-16T07:23:42;8;4;
73414;PMS5003;61633;53.742;-2.990;2022-10-16T07:26:08;3;2;
73414;PMS5003;61633;53.742;-2.990;2022-10-16T07:28:33;1;1;
73414;PMS5003;61633;53.742;-2.990;2022-10-16T07:31:00;5;3;
73414;PMS5003;61633;53.742;-2.990;2022-10-16T07:33:24;1;0;
73414;PMS5003;61633;53.742;-2.990;2022-10-16T07:35:51;3;1;
73414;PMS5003;61633;53.742;-2.990;2022-10-16T07:38:16;1;1;
73414;PMS5003;61633;53.742;-2.990;2022-10-16T07:40:41;1;1;
73414;PMS5003;61633;53.742;-2.990;2022-10-16T07:43:07;4;4;
73414;PMS5003;61633;53.742;-2.990;2022-10-16T07:45:32;2;2;
73414;PMS5003;61633;53.742;-2.990;2022-10-16T07:47:57;0;0;
73414;PMS5003;61633;53.742;-2.990;2022-10-16T07:50:23;2;2;
73414;PMS5003;61633;53.742;-2.990;2022-10-16T07:52:49;1;1;
73414;PMS5003;61633;53.742;-2.990;2022-10-16T07:55:14;1;1;
73414;PMS5003;61633;53.742;-2.990;2022-10-16T07:57:40;2;1;
73414;PMS5003;61633;53.742;-2.990;2022-10-16T08:00:06;5;1;
73414;PMS5003;61633;53.742;-2.990;2022-10-16T08:02:31;2;2;
73414;PMS5003;61633;53.742;-2.990;2022-10-16T08:04:57;3;3;
73414;PMS5003;61633;53.742;-2.990;2022-10-16T08:07:22;2;2;
73414;PMS5003;61633;53.742;-2.990;2022-10-16T08:09:50;3;1;
73414;PMS5003;61633;53.742;-2.990;2022-10-16T08:12:13;2;2;
73414;PMS5003;61633;53.742;-2.990;2022-10-16T08:14:39;1;1;
73414;PMS5003;61633;53.742;-2.990;2022-10-16T08:17:04;2;2;
73414;PMS5003;61633;53.742;-2.990;2022-10-16T08:19:29;4;3;
73414;PMS5003;61633;53.742;-2.990;2022-10-16T08:21:55;3;2;
73414;PMS5003;61633;53.742;-2.990;2022-10-16T08:24:20;3;2;
73414;PMS5003;61633;53.742;-2.990;2022-10-16T08:26:46;2;1;
73414;PMS5003;61633;53.742;-2.990;2022-10-16T08:29:13;3;2;
73414;PMS5003;61633;53.742;-2.990;2022-10-16T08:31:37;1;1;
73414;PMS5003;61633;53.742;-2.990;2022-10-16T08:34:03;3;1;
73414;PMS5003;61633;53.742;-2.990;2022-10-16T08:36:28;3;2;
73414;PMS5003;61633;53.742;-2.990;2022-10-16T08:38:54;3;1;
73414;PMS5003;61633;53.742;-2.990;2022-10-16T08:41:22;2;1;
73414;PMS5003;61633;53.742;-2.990;2022-10-16T08:46:17;0;0;
73414;PMS5003;61633;53.742;-2.990;2022-10-16T08:48:39;2;1;
73414;PMS5003;61633;53.742;-2.990;2022-10-16T08:51:02;2;1;
73414;PMS5003;61633;53.742;-2.990;2022-10-16T08:53:28;3;1;
73414;PMS5003;61633;53.742;-2.990;2022-10-16T08:55:53;2;2;
73414;PMS5003;61633;53.742;-2.990;2022-10-16T08:58:19;1;1;
73414;PMS5003;61633;53.742;-2.990;2022-10-16T09:00:45;4;2;
73414;PMS5003;61633;53.742;-2.990;2022-10-16T09:03:12;4;2;
73414;PMS5003;61633;53.742;-2.990;2022-10-16T09:05:41;1;1;
73414;PMS5003;61633;53.742;-2.990;2022-10-16T09:08:03;3;1;
73414;PMS5003;61633;53.742;-2.990;2022-10-16T09:12:53;2;1;
73414;PMS5003;61633;53.742;-2.990;2022-10-16T09:15:24;2;1;
73414;PMS5003;61633;53.742;-2.990;2022-10-16T09:17:45;3;2;
73414;PMS5003;61633;53.742;-2.990;2022-10-16T09:20:13;4;4;
73414;PMS5003;61633;53.742;-2.990;2022-10-16T09:22:33;3;1;
73414;PMS5003;61633;53.742;-2.990;2022-10-16T09:25:00;3;3;
73414;PMS5003;61633;53.742;-2.990;2022-10-16T09:27:24;3;1;
73414;PMS5003;61633;53.742;-2.990;2022-10-16T09:29:50;2;2;
73414;PMS5003;61633;53.742;-2.990;2022-10-16T09:32:17;3;2;
73414;PMS5003;61633;53.742;-2.990;2022-10-16T09:34:42;2;2;
73414;PMS5003;61633;53.742;-2.990;2022-10-16T09:37:08;3;2;
73414;PMS5003;61633;53.742;-2.990;2022-10-16T09:41:57;3;2;
73414;PMS5003;61633;53.742;-2.990;2022-10-16T09:44:23;1;1;
73414;PMS5003;61633;53.742;-2.990;2022-10-16T09:46:48;3;2;
73414;PMS5003;61633;53.742;-2.990;2022-10-16T09:49:20;4;4;
73414;PMS5003;61633;53.742;-2.990;2022-10-16T09:51:39;2;1;
73414;PMS5003;61633;53.742;-2.990;2022-10-16T09:56:31;0;0;
73414;PMS5003;61633;53.742;-2.990;2022-10-16T09:58:57;4;3;
73414;PMS5003;61633;53.742;-2.990;2022-10-16T10:01:22;2;2;
73414;PMS5003;61633;53.742;-2.990;2022-10-16T10:03:48;5;2;
73414;PMS5003;61633;53.742;-2.990;2022-10-16T10:06:17;0;0;
73414;PMS5003;61633;53.742;-2.990;2022-10-16T10:08:38;1;1;
73414;PMS5003;61633;53.742;-2.990;2022-10-16T10:11:04;1;1;
73414;PMS5003;61633;53.742;-2.990;2022-10-16T10:13:29;2;2;
73414;PMS5003;61633;53.742;-2.990;2022-10-16T10:15:55;5;3;
73414;PMS5003;61633;53.742;-2.990;2022-10-16T10:18:21;1;1;
73414;PMS5003;61633;53.742;-2.990;2022-10-16T10:20:46;2;2;
73414;PMS5003;61633;53.742;-2.990;2022-10-16T10:23:19;3;2;
73414;PMS5003;61633;53.742;-2.990;2022-10-16T10:25:39;2;2;
73414;PMS5003;61633;53.742;-2.990;2022-10-16T10:28:06;2;2;
73414;PMS5003;61633;53.742;-2.990;2022-10-16T10:30:30;3;2;
73414;PMS5003;61633;53.742;-2.990;2022-10-16T10:32:59;0;0;
73414;PMS5003;61633;53.742;-2.990;2022-10-16T10:35:21;2;2;
73414;PMS5003;61633;53.742;-2.990;2022-10-16T10:37:49;3;2;
73414;PMS5003;61633;53.742;-2.990;2022-10-16T10:40:15;1;1;
73414;PMS5003;61633;53.742;-2.990;2022-10-16T10:42:37;4;1;
73414;PMS5003;61633;53.742;-2.990;2022-10-16T10:45:08;2;1;
73414;PMS5003;61633;53.742;-2.990;2022-10-16T10:47:29;5;2;
73414;PMS5003;61633;53.742;-2.990;2022-10-16T10:49:55;0;0;
73414;PMS5003;61633;53.742;-2.990;2022-10-16T10:52:29;1;1;
73414;PMS5003;61633;53.742;-2.990;2022-10-16T10:54:45;2;0;
73414;PMS5003;61633;53.742;-2.990;2022-10-16T10:57:09;1;1;
73414;PMS5003;61633;53.742;-2.990;2022-10-16T10:59:38;0;0;
73414;PMS5003;61633;53.742;-2.990;2022-10-16T11:02:01;3;2;
73414;PMS5003;61633;53.742;-2.990;2022-10-16T11:04:31;4;3;
73414;PMS5003;61633;53.742;-2.990;2022-10-16T11:06:52;2;2;
73414;PMS5003;61633;53.742;-2.990;2022-10-16T11:09:18;13;5;
73414;PMS5003;61633;53.742;-2.990;2022-10-16T11:11:43;10;6;
73414;PMS5003;61633;53.742;-2.990;2022-10-16T11:14:11;2;1;
73414;PMS5003;61633;53.742;-2.990;2022-10-16T11:16:35;3;1;
73414;PMS5003;61633;53.742;-2.990;2022-10-16T11:19:01;3;1;
73414;PMS5003;61633;53.742;-2.990;2022-10-16T11:21:23;3;3;
73414;PMS5003;61633;53.742;-2.990;2022-10-16T11:23:51;2;0;
73414;PMS5003;61633;53.742;-2.990;2022-10-16T11:26:15;2;1;
73414;PMS5003;61633;53.742;-2.990;2022-10-16T11:28:41;3;1;
73414;PMS5003;61633;53.742;-2.990;2022-10-16T11:31:07;2;2;
73414;PMS5003;61633;53.742;-2.990;2022-10-16T11:33:32;5;5;
73414;PMS5003;61633;53.742;-2.990;2022-10-16T11:35:59;6;3;
73414;PMS5003;61633;53.742;-2.990;2022-10-16T11:38:24;5;5;
73414;PMS5003;61633;53.742;-2.990;2022-10-16T11:40:48;6;3;
73414;PMS5003;61633;53.742;-2.990;2022-10-16T11:43:14;7;6;
73414;PMS5003;61633;53.742;-2.990;2022-10-16T11:45:40;3;2;
73414;PMS5003;61633;53.742;-2.990;2022-10-16T11:48:07;1;1;
73414;PMS5003;61633;53.742;-2.990;2022-10-16T11:50:31;4;2;
73414;PMS5003;61633;53.742;-2.990;2022-10-16T11:52:57;4;4;
73414;PMS5003;61633;53.742;-2.990;2022-10-16T11:55:22;2;2;
73414;PMS5003;61633;53.742;-2.990;2022-10-16T11:57:48;4;4;
73414;PMS5003;61633;53.742;-2.990;2022-10-16T12:00:19;3;2;
73414;PMS5003;61633;53.742;-2.990;2022-10-16T12:02:43;4;1;
73414;PMS5003;61633;53.742;-2.990;2022-10-16T12:05:07;3;3;
73414;PMS5003;61633;53.742;-2.990;2022-10-16T12:07:32;1;1;
73414;PMS5003;61633;53.742;-2.990;2022-10-16T12:09:54;0;0;
73414;PMS5003;61633;53.742;-2.990;2022-10-16T12:12:24;2;2;
73414;PMS5003;61633;53.742;-2.990;2022-10-16T12:14:45;1;1;
73414;PMS5003;61633;53.742;-2.990;2022-10-16T12:17:23;0;0;
73414;PMS5003;61633;53.742;-2.990;2022-10-16T12:19:38;0;0;
73414;PMS5003;61633;53.742;-2.990;2022-10-16T12:22:02;2;2;
73414;PMS5003;61633;53.742;-2.990;2022-10-16T12:24:31;1;1;
73414;PMS5003;61633;53.742;-2.990;2022-10-16T12:26:53;1;1;
73414;PMS5003;61633;53.742;-2.990;2022-10-16T12:29:22;2;2;
73414;PMS5003;61633;53.742;-2.990;2022-10-16T12:31:44;6;3;
73414;PMS5003;61633;53.742;-2.990;2022-10-16T12:34:14;1;1;
73414;PMS5003;61633;53.742;-2.990;2022-10-16T12:36:35;4;4;
73414;PMS5003;61633;53.742;-2.990;2022-10-16T12:39:00;7;3;
73414;PMS5003;61633;53.742;-2.990;2022-10-16T12:41:27;2;1;
73414;PMS5003;61633;53.742;-2.990;2022-10-16T12:43:51;2;2;
73414;PMS5003;61633;53.742;-2.990;2022-10-16T12:46:23;1;1;
73414;PMS5003;61633;53.742;-2.990;2022-10-16T12:48:43;1;0;
73414;PMS5003;61633;53.742;-2.990;2022-10-16T12:51:10;3;1;
73414;PMS5003;61633;53.742;-2.990;2022-10-16T12:53:33;3;2;
73414;PMS5003;61633;53.742;-2.990;2022-10-16T12:56:03;2;2;
73414;PMS5003;61633;53.742;-2.990;2022-10-16T12:58:29;0;0;
73414;PMS5003;61633;53.742;-2.990;2022-10-16T13:00:52;1;0;
73414;PMS5003;61633;53.742;-2.990;2022-10-16T13:03:25;3;2;
73414;PMS5003;61633;53.742;-2.990;2022-10-16T13:05:46;2;2;
73414;PMS5003;61633;53.742;-2.990;2022-10-16T13:08:13;2;2;
73414;PMS5003;61633;53.742;-2.990;2022-10-16T13:10:34;1;1;
73414;PMS5003;61633;53.742;-2.990;2022-10-16T13:13:08;2;2;
73414;PMS5003;61633;53.742;-2.990;2022-10-16T13:15:27;4;1;
73414;PMS5003;61633;53.742;-2.990;2022-10-16T13:17:52;1;1;
73414;PMS5003;61633;53.742;-2.990;2022-10-16T13:20:16;1;1;
73414;PMS5003;61633;53.742;-2.990;2022-10-16T13:22:42;3;1;
73414;PMS5003;61633;53.742;-2.990;2022-10-16T13:25:10;1;1;
73414;PMS5003;61633;53.742;-2.990;2022-10-16T13:27:34;1;0;
73414;PMS5003;61633;53.742;-2.990;2022-10-16T13:30:00;3;3;
73414;PMS5003;61633;53.742;-2.990;2022-10-16T13:32:22;2;1;
73414;PMS5003;61633;53.742;-2.990;2022-10-16T13:34:48;2;2;
73414;PMS5003;61633;53.742;-2.990;2022-10-16T13:37:17;7;4;
73414;PMS5003;61633;53.742;-2.990;2022-10-16T13:39:39;3;3;
73414;PMS5003;61633;53.742;-2.990;2022-10-16T13:42:04;3;3;
73414;PMS5003;61633;53.742;-2.990;2022-10-16T13:44:31;6;4;
73414;PMS5003;61633;53.742;-2.990;2022-10-16T13:46:58;2;1;
73414;PMS5003;61633;53.742;-2.990;2022-10-16T13:49:20;6;4;
73414;PMS5003;61633;53.742;-2.990;2022-10-16T13:54:11;2;2;
73414;PMS5003;61633;53.742;-2.990;2022-10-16T13:56:38;1;1;
73414;PMS5003;61633;53.742;-2.990;2022-10-16T13:59:03;2;0;
73414;PMS5003;61633;53.742;-2.990;2022-10-16T14:01:29;1;1;
73414;PMS5003;61633;53.742;-2.990;2022-10-16T14:03:59;2;0;
73414;PMS5003;61633;53.742;-2.990;2022-10-16T14:06:19;0;0;
73414;PMS5003;61633;53.742;-2.990;2022-10-16T14:08:45;0;0;
73414;PMS5003;61633;53.742;-2.990;2022-10-16T14:11:10;0;0;
73414;PMS5003;61633;53.742;-2.990;2022-10-16T14:13:37;2;2;
73414;PMS5003;61633;53.742;-2.990;2022-10-16T14:16:03;4;4;
73414;PMS5003;61633;53.742;-2.990;2022-10-16T14:18:26;12;10;
73414;PMS5003;61633;53.742;-2.990;2022-10-16T14:20:52;8;8;
73414;PMS5003;61633;53.742;-2.990;2022-10-16T14:23:20;6;6;
73414;PMS5003;61633;53.742;-2.990;2022-10-16T14:25:43;5;5;
73414;PMS5003;61633;53.742;-2.990;2022-10-16T14:30:35;7;6;
73414;PMS5003;61633;53.742;-2.990;2022-10-16T14:32:59;3;3;
73414;PMS5003;61633;53.742;-2.990;2022-10-16T14:35:26;7;5;
73414;PMS5003;61633;53.742;-2.990;2022-10-16T14:37:51;5;5;
73414;PMS5003;61633;53.742;-2.990;2022-10-16T14:40:16;5;5;
73414;PMS5003;61633;53.742;-2.990;2022-10-16T14:42:42;4;4;
73414;PMS5003;61633;53.742;-2.990;2022-10-16T14:45:07;3;3;
73414;PMS5003;61633;53.742;-2.990;2022-10-16T14:47:32;5;5;
73414;PMS5003;61633;53.742;-2.990;2022-10-16T14:49:58;5;5;
73414;PMS5003;61633;53.742;-2.990;2022-10-16T14:52:23;7;6;
73414;PMS5003;61633;53.742;-2.990;2022-10-16T14:54:49;5;5;
73414;PMS5003;61633;53.742;-2.990;2022-10-16T14:57:16;4;3;
73414;PMS5003;61633;53.742;-2.990;2022-10-16T14:59:40;6;5;
73414;PMS5003;61633;53.742;-2.990;2022-10-16T15:02:13;2;2;
73414;PMS5003;61633;53.742;-2.990;2022-10-16T15:04:31;3;3;
73414;PMS5003;61633;53.742;-2.990;2022-10-16T15:06:57;5;5;
73414;PMS5003;61633;53.742;-2.990;2022-10-16T15:09:22;8;7;
73414;PMS5003;61633;53.742;-2.990;2022-10-16T15:11:48;9;9;
73414;PMS5003;61633;53.742;-2.990;2022-10-16T15:14:14;8;8;
73414;PMS5003;61633;53.742;-2.990;2022-10-16T15:16:39;8;8;
73414;PMS5003;61633;53.742;-2.990;2022-10-16T15:19:04;6;6;
73414;PMS5003;61633;53.742;-2.990;2022-10-16T15:21:31;5;5;
73414;PMS5003;61633;53.742;-2.990;2022-10-16T15:23:56;5;5;
73414;PMS5003;61633;53.742;-2.990;2022-10-16T15:26:21;3;3;
73414;PMS5003;61633;53.742;-2.990;2022-10-16T15:28:47;4;4;
73414;PMS5003;61633;53.742;-2.990;2022-10-16T15:31:12;6;4;
73414;PMS5003;61633;53.742;-2.990;2022-10-16T15:33:38;5;5;
73414;PMS5003;61633;53.742;-2.990;2022-10-16T15:36:04;6;5;
73414;PMS5003;61633;53.742;-2.990;2022-10-16T15:38:29;7;6;
73414;PMS5003;61633;53.742;-2.990;2022-10-16T15:40:55;5;3;
73414;PMS5003;61633;53.742;-2.990;2022-10-16T15:43:20;29;21;
73414;PMS5003;61633;53.742;-2.990;2022-10-16T15:45:46;17;16;
73414;PMS5003;61633;53.742;-2.990;2022-10-16T15:48:11;13;10;
73414;PMS5003;61633;53.742;-2.990;2022-10-16T15:50:37;30;30;
73414;PMS5003;61633;53.742;-2.990;2022-10-16T15:53:02;14;13;
73414;PMS5003;61633;53.742;-2.990;2022-10-16T15:55:28;21;18;
73414;PMS5003;61633;53.742;-2.990;2022-10-16T15:57:53;17;14;
73414;PMS5003;61633;53.742;-2.990;2022-10-16T16:00:19;14;11;
73414;PMS5003;61633;53.742;-2.990;2022-10-16T16:02:49;11;8;
73414;PMS5003;61633;53.742;-2.990;2022-10-16T16:05:10;2;2;
73414;PMS5003;61633;53.742;-2.990;2022-10-16T16:07:36;7;7;
73414;PMS5003;61633;53.742;-2.990;2022-10-16T16:10:01;5;5;
73414;PMS5003;61633;53.742;-2.990;2022-10-16T16:12:26;4;2;
73414;PMS5003;61633;53.742;-2.990;2022-10-16T16:14:52;4;4;
73414;PMS5003;61633;53.742;-2.990;2022-10-16T16:17:18;3;2;
73414;PMS5003;61633;53.742;-2.990;2022-10-16T16:19:43;2;2;
73414;PMS5003;61633;53.742;-2.990;2022-10-16T16:22:09;3;3;
73414;PMS5003;61633;53.742;-2.990;2022-10-16T16:24:35;3;3;
73414;PMS5003;61633;53.742;-2.990;2022-10-16T16:27:00;5;5;
73414;PMS5003;61633;53.742;-2.990;2022-10-16T16:29:26;4;3;
73414;PMS5003;61633;53.742;-2.990;2022-10-16T16:31:51;8;8;
73414;PMS5003;61633;53.742;-2.990;2022-10-16T16:34:17;8;7;
73414;PMS5003;61633;53.742;-2.990;2022-10-16T16:36:42;10;9;